Time;durP1;ratioP1;P1;durP2;ratioP2;P2;SDS_P1;SDS_P2;PMS_P1;PMS_P2;Temp;Humidity;BMP_temperature;BMP_pressure;BME280_temperature;BME280_humidity;BME280_pressure;Samples;Min_cycle;Max_cycle;Signal;HPM_P1;HPM_P2
2021/04/19 00:04:48;;;;;;;56.3;46.4;;;;;;;4.16;100;98788.17;;;;
2021/04/19 00:14:46;;;;;;;60.2;45.4;;;;;;;4;100;98779.3;;;;
2021/04/19 00:24:45;;;;;;;54.6;44.9;;;;;;;3.79;100;98770.4;;;;
2021/04/19 00:34:43;;;;;;;53.2;41;;;;;;;3.65;100;98758.59;;;;
2021/04/19 00:44:41;;;;;;;46.1;40.4;;;;;;;3.68;100;98763.4;;;;
2021/04/19 00:54:39;;;;;;;44.2;37.3;;;;;;;3.74;100;98754.39;;;;
2021/04/19 01:04:37;;;;;;;45.9;36.3;;;;;;;3.8;100;98766.68;;;;
2021/04/19 01:14:36;;;;;;;56.3;38.2;;;;;;;3.97;100;98767.3;;;;
2021/04/19 01:24:36;;;;;;;51.1;41.4;;;;;;;4.08;100;98740.66;;;;
2021/04/19 01:34:31;;;;;;;57.6;45.5;;;;;;;4.21;100;98743.64;;;;
2021/04/19 01:44:30;;;;;;;46.7;41.6;;;;;;;4.34;100;98737.03;;;;
2021/04/19 01:54:28;;;;;;;45.8;38.6;;;;;;;4.26;100;98746.34;;;;
2021/04/19 02:04:26;;;;;;;55.2;41.6;;;;;;;4.26;100;98751.67;;;;
2021/04/19 02:14:24;;;;;;;44.6;38;;;;;;;4.3;100;98759.95;;;;
2021/04/19 02:24:22;;;;;;;43.5;35.9;;;;;;;4.38;100;98746.08;;;;
2021/04/19 02:34:21;;;;;;;44;36.5;;;;;;;4.52;100;98745.32;;;;
2021/04/19 02:44:20;;;;;;;36.4;30.9;;;;;;;4.53;100;98724.78;;;;
2021/04/19 02:54:17;;;;;;;46.9;38.6;;;;;;;4.56;100;98724.24;;;;
2021/04/19 03:04:15;;;;;;;43.1;36.7;;;;;;;4.61;100;98716.26;;;;
2021/04/19 03:14:14;;;;;;;39.6;34.3;;;;;;;4.77;100;98714.39;;;;
2021/04/19 03:24:12;;;;;;;55;39.8;;;;;;;4.73;100;98723.98;;;;
2021/04/19 03:34:10;;;;;;;43.6;38.3;;;;;;;4.67;100;98717.86;;;;
2021/04/19 03:44:09;;;;;;;42.1;32.8;;;;;;;4.79;100;98713.05;;;;
2021/04/19 03:54:07;;;;;;;44.7;36;;;;;;;4.9;100;98703.17;;;;
2021/04/19 04:04:05;;;;;;;39.5;34.1;;;;;;;5.1;100;98711.2;;;;
2021/04/19 04:14:04;;;;;;;48.3;35.1;;;;;;;5.28;100;98699.92;;;;
2021/04/19 04:24:02;;;;;;;46.2;34.4;;;;;;;5.36;100;98695.91;;;;
2021/04/19 04:34:00;;;;;;;50.4;36.6;;;;;;;5.42;100;98692.95;;;;
2021/04/19 04:43:59;;;;;;;43.4;34.5;;;;;;;5.57;100;98687.58;;;;
2021/04/19 04:53:57;;;;;;;45.6;36.1;;;;;;;5.65;100;98696.11;;;;
2021/04/19 05:03:55;;;;;;;47.2;38.2;;;;;;;5.77;100;98708.09;;;;
2021/04/19 05:13:54;;;;;;;49.7;40.1;;;;;;;5.8;100;98704.86;;;;
2021/04/19 05:23:52;;;;;;;45;40.1;;;;;;;5.85;100;98707.53;;;;
2021/04/19 05:33:53;;;;;;;47;38.4;;;;;;;5.91;100;98700.3;;;;
2021/04/19 05:43:50;;;;;;;42.7;36.7;;;;;;;5.98;100;98701.61;;;;
2021/04/19 05:53:53;;;;;;;40.1;35.9;;;;;;;6.08;100;98704.23;;;;
2021/04/19 06:03:57;;;;;;;39.1;35;;;;;;;6.05;100;98710.14;;;;
2021/04/19 06:13:44;;;;;;;41.2;35.9;;;;;;;5.91;100;98719.83;;;;
2021/04/19 06:23:43;;;;;;;44.2;38.8;;;;;;;5.94;100;98713.93;;;;
2021/04/19 06:33:41;;;;;;;43.5;35.7;;;;;;;5.92;100;98716.09;;;;
2021/04/19 06:43:40;;;;;;;46.1;38;;;;;;;6.21;100;98708.2;;;;
2021/04/19 06:53:38;;;;;;;46.5;39;;;;;;;6.14;100;98715.73;;;;
2021/04/19 07:03:39;;;;;;;52.6;39.4;;;;;;;6.22;100;98719.69;;;;
2021/04/19 07:13:35;;;;;;;52;40.3;;;;;;;6.43;100;98694.41;;;;
2021/04/19 07:23:35;;;;;;;50.3;44.8;;;;;;;6.54;100;98693.27;;;;
2021/04/19 07:33:32;;;;;;;61;46.5;;;;;;;6.92;100;98703.16;;;;
2021/04/19 07:43:31;;;;;;;47.6;38.9;;;;;;;6.87;100;98697.05;;;;
2021/04/19 07:53:29;;;;;;;59.2;47.7;;;;;;;7.11;100;98689.08;;;;
2021/04/19 08:03:28;;;;;;;52;43.8;;;;;;;7.32;100;98688.61;;;;
2021/04/19 08:13:27;;;;;;;52;45.2;;;;;;;7.75;100;98702.87;;;;
2021/04/19 08:23:25;;;;;;;56.6;43.6;;;;;;;8.11;100;98692.51;;;;
2021/04/19 08:33:24;;;;;;;46.8;41.9;;;;;;;8.61;100;98692.92;;;;
2021/04/19 08:43:23;;;;;;;42.4;36.4;;;;;;;8.15;100;98704.27;;;;
2021/04/19 08:53:22;;;;;;;39.2;33.4;;;;;;;8.21;100;98702.31;;;;
2021/04/19 09:03:20;;;;;;;43.1;35;;;;;;;8.74;100;98695.67;;;;
2021/04/19 09:13:19;;;;;;;41;30.7;;;;;;;9.42;100;98689.66;;;;
2021/04/19 09:23:18;;;;;;;35.8;30;;;;;;;9.53;100;98685.7;;;;
2021/04/19 09:33:20;;;;;;;36.1;32.3;;;;;;;9.23;100;98687.06;;;;
2021/04/19 09:43:16;;;;;;;34.9;31.1;;;;;;;8.95;100;98674.64;;;;
2021/04/19 09:53:15;;;;;;;32.9;29.4;;;;;;;9.3;100;98665.16;;;;
2021/04/19 10:03:14;;;;;;;39;30.7;;;;;;;9.15;100;98681.55;;;;
2021/04/19 10:13:13;;;;;;;44.1;30.3;;;;;;;9.15;100;98657.35;;;;
2021/04/19 10:23:12;;;;;;;39.2;35.1;;;;;;;8.97;100;98662.49;;;;
2021/04/19 10:33:11;;;;;;;50.4;38.3;;;;;;;8.71;100;98655.92;;;;
2021/04/19 10:43:10;;;;;;;46.6;37.1;;;;;;;8.46;100;98656.34;;;;
2021/04/19 10:53:08;;;;;;;47.2;42.5;;;;;;;8.54;100;98661.83;;;;
2021/04/19 11:03:07;;;;;;;52.8;45.1;;;;;;;8.41;100;98653.72;;;;
2021/04/19 11:13:06;;;;;;;53.8;46.4;;;;;;;8.36;100;98651.13;;;;
2021/04/19 11:23:05;;;;;;;57.5;49.7;;;;;;;8.57;100;98642.44;;;;
2021/04/19 11:33:05;;;;;;;53.8;46.9;;;;;;;9.08;100;98631.66;;;;
2021/04/19 11:43:08;;;;;;;60.7;51.2;;;;;;;8.91;100;98633.31;;;;
2021/04/19 11:53:01;;;;;;;57;50;;;;;;;9.17;100;98633.64;;;;
2021/04/19 12:03:00;;;;;;;62.5;48.6;;;;;;;10.03;100;98632.74;;;;
2021/04/19 12:12:59;;;;;;;58.7;46.3;;;;;;;10.57;100;98624.52;;;;
2021/04/19 12:22:58;;;;;;;54.7;46;;;;;;;11.23;100;98622.04;;;;
2021/04/19 12:32:57;;;;;;;48.5;43.2;;;;;;;11.54;100;98612;;;;
2021/04/19 12:42:57;;;;;;;55.3;40.2;;;;;;;11.57;100;98593.28;;;;
2021/04/19 12:52:56;;;;;;;45.7;40.7;;;;;;;11.94;100;98588.48;;;;
2021/04/19 13:02:55;;;;;;;48.2;39.9;;;;;;;12.07;100;98577.53;;;;
2021/04/19 13:12:55;;;;;;;46.1;41.1;;;;;;;11.85;100;98569.55;;;;
2021/04/19 13:22:54;;;;;;;41.4;35;;;;;;;12.57;100;98572.4;;;;
2021/04/19 13:32:54;;;;;;;38.6;33.2;;;;;;;12.99;100;98578.03;;;;
2021/04/19 13:42:53;;;;;;;38.3;30.8;;;;;;;13.37;100;98559.92;;;;
2021/04/19 13:52:52;;;;;;;38.2;34.1;;;;;;;13.72;100;98551.59;;;;
2021/04/19 14:02:52;;;;;;;37.4;29.1;;;;;;;14;100;98541.84;;;;
2021/04/19 14:12:52;;;;;;;44.3;31.1;;;;;;;13.3;96.71094;98537.19;;;;
2021/04/19 14:22:51;;;;;;;35.9;28.1;;;;;;;12.49;100;98535.38;;;;
2021/04/19 14:32:50;;;;;;;34.5;28;;;;;;;11.9;100;98538.91;;;;
2021/04/19 14:42:50;;;;;;;33.9;29.4;;;;;;;11.67;100;98522;;;;
2021/04/19 14:52:50;;;;;;;32;28.2;;;;;;;11.69;100;98525.2;;;;
2021/04/19 15:02:51;;;;;;;32.8;27.7;;;;;;;11.33;100;98521.94;;;;
2021/04/19 15:12:50;;;;;;;34.3;28.8;;;;;;;11.11;100;98512.82;;;;
2021/04/19 15:22:46;;;;;;;35.8;31.7;;;;;;;11.18;100;98520.45;;;;
2021/04/19 15:32:45;;;;;;;40.3;33.4;;;;;;;11.27;100;98520.5;;;;
2021/04/19 15:42:45;;;;;;;50.1;36.8;;;;;;;11.05;100;98515.97;;;;
2021/04/19 15:52:44;;;;;;;38.5;33.2;;;;;;;11.16;100;98508.39;;;;
2021/04/19 16:02:43;;;;;;;40.1;31.2;;;;;;;10.84;100;98507.64;;;;
2021/04/19 16:12:42;;;;;;;44.8;35.8;;;;;;;10.74;100;98529.48;;;;
2021/04/19 16:22:41;;;;;;;49.9;41.1;;;;;;;10.39;100;98524.99;;;;
2021/04/19 16:32:41;;;;;;;50.7;42.4;;;;;;;9.9;100;98526.66;;;;
2021/04/19 16:42:40;;;;;;;49;42.1;;;;;;;9.77;100;98532.09;;;;
2021/04/19 16:52:39;;;;;;;49.5;42.4;;;;;;;9.64;100;98535.61;;;;
2021/04/19 17:02:38;;;;;;;48.1;37.4;;;;;;;9.57;100;98530.65;;;;
2021/04/19 17:12:37;;;;;;;45.7;40.5;;;;;;;9.34;100;98527.08;;;;
2021/04/19 17:22:36;;;;;;;44.2;39.5;;;;;;;9.1;100;98519.23;;;;
2021/04/19 17:32:34;;;;;;;46.2;39.1;;;;;;;9.15;100;98534.47;;;;
2021/04/19 17:42:33;;;;;;;49.7;42.3;;;;;;;9.18;100;98525.8;;;;
2021/04/19 17:52:32;;;;;;;56;40.2;;;;;;;9.05;100;98545.42;;;;
2021/04/19 18:02:31;;;;;;;49.5;39.1;;;;;;;9.04;100;98550;;;;
2021/04/19 18:12:30;;;;;;;126.1;105.8;;;;;;;8.84;100;98553.07;;;;
2021/04/19 18:22:29;;;;;;;64.7;52.4;;;;;;;8.92;100;98565.03;;;;
2021/04/19 18:32:28;;;;;;;58.4;52.1;;;;;;;8.75;100;98562.89;;;;
2021/04/19 18:42:27;;;;;;;75.2;63.4;;;;;;;8.78;100;98566.9;;;;
2021/04/19 18:52:26;;;;;;;68.2;55.1;;;;;;;8.72;100;98551.94;;;;
2021/04/19 19:02:24;;;;;;;68.9;49.7;;;;;;;8.73;100;98542.8;;;;
2021/04/19 19:12:23;;;;;;;57.9;49.3;;;;;;;8.55;100;98529.13;;;;
2021/04/19 19:22:22;;;;;;;57.1;45.4;;;;;;;8.55;100;98518.39;;;;
2021/04/19 19:32:21;;;;;;;49.4;44;;;;;;;8.4;100;98515.18;;;;
2021/04/19 19:42:20;;;;;;;63.3;50.2;;;;;;;8.24;100;98513.79;;;;
2021/04/19 19:52:18;;;;;;;59.5;53.6;;;;;;;8.34;100;98521.7;;;;
2021/04/19 20:02:17;;;;;;;55.1;49.3;;;;;;;8.23;100;98518.36;;;;
2021/04/19 20:12:16;;;;;;;80.3;61.6;;;;;;;8.18;100;98518.46;;;;
2021/04/19 20:22:14;;;;;;;71;57.9;;;;;;;8.13;100;98518.53;;;;
2021/04/19 20:32:13;;;;;;;73.3;62.2;;;;;;;8.06;100;98502.8;;;;
2021/04/19 20:42:12;;;;;;;64.8;56.9;;;;;;;7.85;100;98498.83;;;;
2021/04/19 20:52:11;;;;;;;57.4;51.1;;;;;;;7.62;100;98490.88;;;;
2021/04/19 21:02:09;;;;;;;57.8;50.9;;;;;;;7.22;100;98495.69;;;;
2021/04/19 21:12:08;;;;;;;60.2;53.8;;;;;;;6.78;100;98487.12;;;;
2021/04/19 21:22:06;;;;;;;57.6;47.5;;;;;;;6.38;100;98488.34;;;;
2021/04/19 21:32:05;;;;;;;44;39.3;;;;;;;6.04;100;98497.19;;;;
2021/04/19 21:42:03;;;;;;;45.9;40.9;;;;;;;5.48;100;98488.72;;;;
2021/04/19 21:52:01;;;;;;;52.1;39;;;;;;;5.22;100;98486.47;;;;
2021/04/19 22:02:00;;;;;;;38.8;33.9;;;;;;;5.22;100;98481.13;;;;
2021/04/19 22:11:58;;;;;;;42.3;35.1;;;;;;;5.03;100;98473.73;;;;
2021/04/19 22:21:56;;;;;;;51.8;39.9;;;;;;;5.01;100;98477.76;;;;
2021/04/19 22:31:56;;;;;;;40.2;32.2;;;;;;;4.89;100;98480.76;;;;
2021/04/19 22:41:53;;;;;;;47.2;35.2;;;;;;;4.76;100;98483.19;;;;
2021/04/19 22:51:51;;;;;;;39.8;35.5;;;;;;;4.82;100;98484.79;;;;
2021/04/19 23:01:51;;;;;;;36.8;32;;;;;;;4.72;100;98479.48;;;;
2021/04/19 23:11:51;;;;;;;34;28.3;;;;;;;4.69;100;98474.66;;;;
2021/04/19 23:21:46;;;;;;;25.8;22.3;;;;;;;4.62;100;98466.95;;;;
2021/04/19 23:31:45;;;;;;;31.3;27.8;;;;;;;4.61;100;98462.7;;;;
2021/04/19 23:41:43;;;;;;;29.6;22.5;;;;;;;4.56;100;98462.7;;;;
2021/04/19 23:51:41;;;;;;;28.9;25.8;;;;;;;4.51;100;98452.05;;;;
